createdAt,value
2022-08-17T00:01:27.161Z,100641.97
2022-08-17T00:03:54.906Z,100639.97
2022-08-17T00:06:29.496Z,100638.88
2022-08-17T00:08:59.276Z,100640.06
2022-08-17T00:11:32.600Z,100639.25
2022-08-17T00:14:03.879Z,100639.72
2022-08-17T00:16:51.916Z,100644.94
2022-08-17T00:19:25.485Z,100651.91
2022-08-17T00:22:29.787Z,100648.97
2022-08-17T00:24:42.416Z,100654.88
2022-08-17T00:27:08.867Z,100659.75
2022-08-17T00:29:35.322Z,100654.06
2022-08-17T00:33:14.906Z,100657.63
2022-08-17T00:34:49.758Z,100655.59
2022-08-17T00:37:16.264Z,100657.63
2022-08-17T00:39:42.762Z,100663.19
2022-08-17T00:42:17.252Z,100656.56
2022-08-17T00:44:43.670Z,100657.59
2022-08-17T00:47:10.111Z,100651.69
2022-08-17T00:49:36.570Z,100658.31
2022-08-17T00:52:12.021Z,100660.00
2022-08-17T00:57:15.037Z,100655.03
2022-08-17T00:59:47.137Z,100662.69
2022-08-17T01:02:35.005Z,100654.88
2022-08-17T01:05:23.471Z,100654.41
2022-08-17T01:07:52.885Z,100664.78
2022-08-17T01:11:00.335Z,100654.97
2022-08-17T01:13:19.658Z,100657.81
2022-08-17T01:15:55.315Z,100661.47
2022-08-17T01:18:21.821Z,100658.63
2022-08-17T01:20:50.769Z,100655.69
2022-08-17T01:23:20.748Z,100658.75
2022-08-17T01:25:54.033Z,100657.81
2022-08-17T01:28:53.030Z,100648.78
2022-08-17T01:31:09.232Z,100656.72
2022-08-17T01:33:36.376Z,100653.28
2022-08-17T01:36:04.123Z,100659.66
2022-08-17T01:38:31.856Z,100660.09
2022-08-17T01:41:06.852Z,100658.47
2022-08-17T01:43:57.292Z,100670.03
2022-08-17T01:46:33.638Z,100667.06
2022-08-17T01:49:01.171Z,100670.75
2022-08-17T01:51:33.170Z,100674.72
2022-08-17T01:54:05.151Z,100663.38
2022-08-17T01:56:33.094Z,100667.63
2022-08-17T01:58:59.566Z,100665.28
2022-08-17T02:01:30.045Z,100669.16
2022-08-17T02:04:00.926Z,100667.00
2022-08-17T02:06:52.697Z,100672.56
2022-08-17T02:09:18.366Z,100674.78
2022-08-17T02:11:46.236Z,100672.78
2022-08-17T02:14:13.023Z,100670.28
2022-08-17T02:16:41.256Z,100674.63
2022-08-17T02:19:15.728Z,100665.47
2022-08-17T02:21:46.776Z,100678.84
2022-08-17T02:24:17.489Z,100669.84
2022-08-17T02:27:04.495Z,100668.56
2022-08-17T02:29:31.022Z,100664.16
2022-08-17T02:31:58.573Z,100658.34
2022-08-17T02:34:25.807Z,100653.38
2022-08-17T02:36:53.391Z,100659.88
2022-08-17T02:39:20.094Z,100659.25
2022-08-17T02:41:46.571Z,100654.91
2022-08-17T02:44:13.508Z,100662.78
2022-08-17T02:47:00.421Z,100654.28
2022-08-17T02:49:26.859Z,100655.47
2022-08-17T02:51:53.291Z,100647.91
2022-08-17T02:54:41.727Z,100650.13
2022-08-17T02:57:06.128Z,100650.69
2022-08-17T02:59:32.543Z,100640.19
2022-08-17T03:01:59.000Z,100652.72
2022-08-17T03:04:25.460Z,100648.69
2022-08-17T03:06:51.903Z,100645.38
2022-08-17T03:09:18.323Z,100639.34
2022-08-17T03:11:44.944Z,100647.72
2022-08-17T03:14:12.430Z,100648.91
2022-08-17T03:16:38.887Z,100650.78
2022-08-17T03:19:05.745Z,100657.13
2022-08-17T03:21:32.174Z,100656.97
2022-08-17T03:23:58.651Z,100652.34
2022-08-17T03:26:25.228Z,100645.41
2022-08-17T03:28:56.112Z,100648.47
2022-08-17T03:31:22.585Z,100640.00
2022-08-17T03:33:49.106Z,100647.69
2022-08-17T03:36:15.641Z,100648.88
2022-08-17T03:38:42.078Z,100652.72
2022-08-17T03:41:11.562Z,100653.75
2022-08-17T03:43:38.048Z,100651.91
2022-08-17T03:46:34.759Z,100650.25
2022-08-17T03:49:25.276Z,100645.03
2022-08-17T03:52:11.471Z,100654.03
2022-08-17T03:54:58.192Z,100658.19
2022-08-17T03:57:24.754Z,100664.00
2022-08-17T03:59:51.333Z,100660.00
2022-08-17T04:02:21.333Z,100656.69
2022-08-17T04:04:50.899Z,100653.34
2022-08-17T04:07:22.012Z,100657.88
2022-08-17T04:09:48.476Z,100651.91
2022-08-17T04:12:18.598Z,100658.88
2022-08-17T04:14:51.932Z,100658.38
2022-08-17T04:17:27.357Z,100658.34
2022-08-17T04:19:54.845Z,100659.31
2022-08-17T04:22:32.283Z,100658.13
2022-08-17T04:25:17.934Z,100654.63
2022-08-17T04:27:44.354Z,100654.81
2022-08-17T04:30:11.755Z,100664.31
2022-08-17T04:33:06.283Z,100669.78
2022-08-17T04:35:42.655Z,100664.44
2022-08-17T04:38:11.997Z,100668.59
2022-08-17T04:40:57.048Z,100671.09
2022-08-17T04:43:25.351Z,100672.88
2022-08-17T04:45:57.149Z,100673.88
2022-08-17T04:48:29.608Z,100673.19
2022-08-17T04:51:07.127Z,100674.13
2022-08-17T04:53:33.805Z,100684.13
2022-08-17T04:56:00.283Z,100689.09
2022-08-17T04:58:27.144Z,100689.22
2022-08-17T05:00:53.785Z,100696.78
2022-08-17T05:03:20.315Z,100700.44
2022-08-17T05:05:49.831Z,100698.84
2022-08-17T05:08:18.871Z,100705.03
2022-08-17T05:10:46.736Z,100702.25
2022-08-17T05:13:16.027Z,100705.34
2022-08-17T05:15:45.111Z,100710.63
2022-08-17T05:18:12.236Z,100711.34
2022-08-17T05:20:40.571Z,100710.31
2022-08-17T05:23:11.120Z,100713.09
2022-08-17T05:25:42.481Z,100709.78
2022-08-17T05:28:15.432Z,100716.56
2022-08-17T05:30:44.185Z,100717.94
2022-08-17T05:33:14.405Z,100715.09
2022-08-17T05:35:44.335Z,100716.22
2022-08-17T05:38:11.134Z,100715.16
2022-08-17T05:40:38.434Z,100718.81
2022-08-17T05:43:16.879Z,100722.47
2022-08-17T05:46:07.754Z,100725.00
2022-08-17T05:48:41.345Z,100722.38
2022-08-17T05:51:42.101Z,100720.97
2022-08-17T05:54:31.166Z,100722.97
2022-08-17T05:57:36.256Z,100721.44
2022-08-17T06:00:34.434Z,100714.56
2022-08-17T06:03:26.992Z,100722.75
2022-08-17T06:05:59.125Z,100714.00
2022-08-17T06:08:52.495Z,100718.25
2022-08-17T06:11:22.840Z,100715.47
2022-08-17T06:14:25.341Z,100725.13
2022-08-17T06:17:00.408Z,100727.53
2022-08-17T06:19:51.507Z,100724.13
2022-08-17T06:22:22.210Z,100726.59
2022-08-17T06:24:53.139Z,100735.00
2022-08-17T06:27:31.135Z,100736.72
2022-08-17T06:30:12.719Z,100732.47
2022-08-17T06:32:43.414Z,100729.38
2022-08-17T06:35:14.031Z,100731.88
2022-08-17T06:37:40.351Z,100730.72
2022-08-17T06:40:37.435Z,100732.31
2022-08-17T06:43:18.223Z,100725.06
2022-08-17T06:45:57.334Z,100729.44
2022-08-17T06:48:46.898Z,100722.59
2022-08-17T06:51:34.627Z,100735.72
2022-08-17T06:54:13.798Z,100733.72
2022-08-17T06:56:59.430Z,100735.09
2022-08-17T06:59:47.190Z,100731.81
2022-08-17T07:02:52.415Z,100739.63
2022-08-17T07:05:22.888Z,100743.72
2022-08-17T07:08:09.215Z,100739.22
2022-08-17T07:10:50.972Z,100740.41
2022-08-17T07:13:33.605Z,100749.50
2022-08-17T07:16:17.722Z,100749.38
2022-08-17T07:18:44.449Z,100737.34
2022-08-17T07:21:30.156Z,100740.22
2022-08-17T07:24:29.767Z,100739.34
2022-08-17T07:27:06.392Z,100743.03
2022-08-17T07:29:39.739Z,100737.75
2022-08-17T07:32:07.600Z,100747.03
2022-08-17T07:34:59.721Z,100738.63
2022-08-17T07:37:26.403Z,100738.53
2022-08-17T07:40:15.609Z,100742.28
2022-08-17T07:42:44.532Z,100746.38
2022-08-17T07:45:34.408Z,100753.25
2022-08-17T07:48:19.353Z,100746.81
2022-08-17T07:50:49.285Z,100749.59
2022-08-17T07:53:25.261Z,100744.38
2022-08-17T07:55:53.547Z,100746.31
2022-08-17T07:58:23.508Z,100744.50
2022-08-17T08:01:08.906Z,100748.19
2022-08-17T08:03:42.718Z,100754.13
2022-08-17T08:06:24.555Z,100748.38
2022-08-17T08:08:54.799Z,100738.47
2022-08-17T08:11:32.149Z,100752.56
2022-08-17T08:14:29.569Z,100744.34
2022-08-17T08:17:04.673Z,100749.19
2022-08-17T08:19:33.640Z,100744.13
2022-08-17T08:22:11.124Z,100751.81
2022-08-17T08:25:23.400Z,100751.16
2022-08-17T08:28:16.341Z,100760.31
2022-08-17T08:30:48.755Z,100758.47
2022-08-17T08:33:32.000Z,100755.25
2022-08-17T08:36:07.424Z,100761.25
2022-08-17T08:38:53.528Z,100745.66
2022-08-17T08:41:30.751Z,100743.72
2022-08-17T08:44:19.575Z,100741.47
2022-08-17T08:46:59.890Z,100746.69
2022-08-17T08:50:02.804Z,100752.25
2022-08-17T08:52:51.593Z,100742.69
2022-08-17T08:55:37.202Z,100745.59
2022-08-17T08:58:32.146Z,100747.06
2022-08-17T09:00:58.489Z,100748.03
2022-08-17T09:03:52.362Z,100748.19
2022-08-17T09:06:38.915Z,100744.47
2022-08-17T09:09:42.646Z,100746.94
2022-08-17T09:12:25.254Z,100753.94
2022-08-17T09:15:01.199Z,100745.88
2022-08-17T09:17:43.407Z,100740.06
2022-08-17T09:20:27.489Z,100732.50
2022-08-17T09:23:02.698Z,100729.84
2022-08-17T09:25:32.906Z,100737.75
2022-08-17T09:28:06.427Z,100736.91
2022-08-17T09:30:43.271Z,100734.72
2022-08-17T09:33:12.747Z,100729.66
2022-08-17T09:35:45.020Z,100725.41
2022-08-17T09:38:21.533Z,100730.41
2022-08-17T09:41:01.608Z,100743.91
2022-08-17T09:43:27.974Z,100745.75
2022-08-17T09:46:03.653Z,100737.03
2022-08-17T09:48:42.287Z,100735.91
2022-08-17T09:51:26.855Z,100736.66
2022-08-17T09:53:53.389Z,100733.66
2022-08-17T09:56:47.038Z,100727.50
2022-08-17T09:59:34.223Z,100733.25
2022-08-17T10:02:25.831Z,100730.44
2022-08-17T10:05:08.775Z,100723.66
2022-08-17T10:08:08.590Z,100721.34
2022-08-17T10:10:43.393Z,100724.09
2022-08-17T10:13:37.152Z,100726.03
2022-08-17T10:16:20.092Z,100719.31
2022-08-17T10:19:10.964Z,100727.31
2022-08-17T10:22:00.893Z,100724.69
2022-08-17T10:25:21.435Z,100729.66
2022-08-17T10:27:52.583Z,100723.72
2022-08-17T10:30:23.873Z,100724.94
2022-08-17T10:32:55.311Z,100731.09
2022-08-17T10:35:30.541Z,100724.22
2022-08-17T10:38:24.401Z,100726.47
2022-08-17T10:41:04.362Z,100722.38
2022-08-17T10:43:38.200Z,100718.75
2022-08-17T10:46:31.339Z,100720.84
2022-08-17T10:49:16.742Z,100721.84
2022-08-17T10:51:56.683Z,100724.78
2022-08-17T10:54:47.614Z,100725.31
2022-08-17T10:57:32.056Z,100716.94
2022-08-17T11:00:00.216Z,100724.75
2022-08-17T11:02:40.649Z,100715.59
2022-08-17T11:05:42.913Z,100711.28
2022-08-17T11:08:31.955Z,100710.50
2022-08-17T11:11:23.617Z,100709.59
2022-08-17T11:14:13.769Z,100697.00
2022-08-17T11:16:40.103Z,100696.34
2022-08-17T11:19:24.717Z,100692.47
2022-08-17T11:22:16.036Z,100692.16
2022-08-17T11:24:47.927Z,100689.97
2022-08-17T11:27:27.570Z,100686.31
2022-08-17T11:30:01.859Z,100687.16
2022-08-17T11:32:36.936Z,100680.31
2022-08-17T11:35:21.622Z,100694.59
2022-08-17T11:38:13.552Z,100683.16
2022-08-17T11:41:01.420Z,100684.44
2022-08-17T11:43:50.061Z,100692.00
2022-08-17T11:46:25.622Z,100681.53
2022-08-17T11:49:10.463Z,100683.53
2022-08-17T11:52:01.665Z,100676.91
2022-08-17T11:54:33.315Z,100680.47
2022-08-17T11:57:27.360Z,100671.56
2022-08-17T12:00:46.927Z,100679.66
2022-08-17T12:03:33.412Z,100676.75
2022-08-17T12:06:17.023Z,100679.59
2022-08-17T12:08:55.455Z,100680.09
2022-08-17T12:11:56.276Z,100678.09
2022-08-17T12:15:06.004Z,100678.75
2022-08-17T12:17:39.713Z,100677.81
2022-08-17T12:20:19.918Z,100681.44
2022-08-17T12:23:14.359Z,100674.66
2022-08-17T12:25:47.205Z,100692.88
2022-08-17T12:28:27.744Z,100680.31
2022-08-17T12:30:59.132Z,100685.16
2022-08-17T12:33:28.626Z,100680.03
2022-08-17T12:35:59.553Z,100685.41
2022-08-17T12:38:31.903Z,100683.38
2022-08-17T12:40:59.750Z,100675.34
2022-08-17T12:43:31.127Z,100666.88
2022-08-17T12:46:01.289Z,100666.16
2022-08-17T12:48:59.083Z,100663.03
2022-08-17T12:51:27.588Z,100654.13
2022-08-17T12:53:55.078Z,100665.22
2022-08-17T12:56:21.555Z,100646.47
2022-08-17T12:58:54.392Z,100649.47
2022-08-17T13:01:23.410Z,100654.53
2022-08-17T13:03:53.475Z,100643.63
2022-08-17T13:06:33.236Z,100642.81
2022-08-17T13:09:17.856Z,100644.78
2022-08-17T13:11:53.558Z,100643.72
2022-08-17T13:14:20.075Z,100656.63
2022-08-17T13:16:53.286Z,100653.19
2022-08-17T13:19:39.857Z,100652.38
2022-08-17T13:22:11.477Z,100638.34
2022-08-17T13:24:38.648Z,100640.75
2022-08-17T13:27:09.644Z,100633.91
2022-08-17T13:29:53.659Z,100634.63
2022-08-17T13:32:33.418Z,100632.22
2022-08-17T13:35:15.717Z,100630.81
2022-08-17T13:38:02.747Z,100635.00
2022-08-17T13:40:35.630Z,100642.81
2022-08-17T13:43:03.365Z,100636.63
2022-08-17T13:45:35.209Z,100638.16
2022-08-17T13:48:11.947Z,100637.34
2022-08-17T13:50:42.590Z,100636.97
2022-08-17T13:53:38.140Z,100637.72
2022-08-17T13:56:37.519Z,100633.81
2022-08-17T13:59:00.879Z,100630.09
2022-08-17T14:01:53.465Z,100627.88
2022-08-17T14:04:31.722Z,100630.25
2022-08-17T14:07:32.122Z,100625.53
2022-08-17T14:10:04.261Z,100621.56
2022-08-17T14:12:33.157Z,100624.28
2022-08-17T14:15:00.145Z,100623.25
2022-08-17T14:17:28.933Z,100629.28
2022-08-17T14:19:55.818Z,100624.38
2022-08-17T14:22:28.722Z,100621.53
2022-08-17T14:24:57.180Z,100626.63
2022-08-17T14:27:26.233Z,100624.28
2022-08-17T14:29:53.209Z,100619.97
2022-08-17T14:32:26.699Z,100617.91
2022-08-17T14:34:56.579Z,100610.44
2022-08-17T14:37:26.282Z,100611.00
2022-08-17T14:39:58.067Z,100607.66
2022-08-17T14:42:27.666Z,100611.31
2022-08-17T14:44:55.274Z,100603.84
2022-08-17T14:47:22.266Z,100608.13
2022-08-17T14:49:48.992Z,100600.84
2022-08-17T14:52:21.727Z,100612.53
2022-08-17T14:54:51.219Z,100603.78
2022-08-17T14:57:26.085Z,100598.66
2022-08-17T15:00:01.897Z,100602.75
2022-08-17T15:02:29.268Z,100606.22
2022-08-17T15:05:01.805Z,100601.94
2022-08-17T15:07:30.277Z,100597.03
2022-08-17T15:10:00.739Z,100599.19
2022-08-17T15:12:31.998Z,100602.84
2022-08-17T15:15:00.583Z,100599.38
2022-08-17T15:17:27.124Z,100605.16
2022-08-17T15:20:18.401Z,100598.44
2022-08-17T15:22:46.370Z,100602.75
2022-08-17T15:25:14.073Z,100594.50
2022-08-17T15:27:40.648Z,100591.19
2022-08-17T15:30:08.751Z,100585.53
2022-08-17T15:32:38.125Z,100589.91
2022-08-17T15:35:06.490Z,100597.25
2022-08-17T15:37:33.368Z,100592.06
2022-08-17T15:40:03.001Z,100586.66
2022-08-17T15:42:29.523Z,100592.38
2022-08-17T15:44:56.029Z,100581.28
2022-08-17T15:47:22.883Z,100585.56
2022-08-17T15:49:50.741Z,100580.03
2022-08-17T15:52:24.756Z,100577.03
2022-08-17T15:54:52.863Z,100574.84
2022-08-17T15:57:20.138Z,100579.28
2022-08-17T15:59:47.422Z,100582.19
2022-08-17T16:03:15.344Z,100581.19
2022-08-17T16:05:15.526Z,100577.28
2022-08-17T16:07:45.288Z,100575.41
2022-08-17T16:10:16.684Z,100568.19
2022-08-17T16:12:46.216Z,100572.53
2022-08-17T16:15:13.772Z,100566.72
2022-08-17T16:17:43.546Z,100563.81
2022-08-17T16:20:20.067Z,100570.94
2022-08-17T16:22:49.342Z,100571.63
2022-08-17T16:25:19.843Z,100568.72
2022-08-17T16:27:47.963Z,100568.03
2022-08-17T16:30:17.765Z,100568.25
2022-08-17T16:32:45.086Z,100571.69
2022-08-17T16:35:14.260Z,100568.47
2022-08-17T16:37:44.611Z,100561.88
2022-08-17T16:40:13.509Z,100562.63
2022-08-17T16:42:40.039Z,100566.34
2022-08-17T16:45:08.690Z,100560.31
2022-08-17T16:47:35.750Z,100557.25
2022-08-17T16:50:04.286Z,100558.78
2022-08-17T16:52:32.797Z,100565.19
2022-08-17T16:55:01.624Z,100567.38
2022-08-17T16:57:29.701Z,100558.97
2022-08-17T16:59:57.055Z,100549.88
2022-08-17T17:02:27.896Z,100563.19
2022-08-17T17:05:13.018Z,100559.56
2022-08-17T17:08:03.568Z,100556.97
2022-08-17T17:10:47.306Z,100557.78
2022-08-17T17:13:57.794Z,100546.25
2022-08-17T17:17:01.106Z,100551.75
2022-08-17T17:19:37.513Z,100557.25
2022-08-17T17:22:30.964Z,100559.41
2022-08-17T17:25:15.858Z,100564.94
2022-08-17T17:27:54.943Z,100548.88
2022-08-17T17:30:29.466Z,100552.78
2022-08-17T17:33:04.730Z,100562.94
2022-08-17T17:35:48.847Z,100549.47
2022-08-17T17:38:20.082Z,100550.47
2022-08-17T17:40:50.131Z,100551.91
2022-08-17T17:43:39.999Z,100554.13
2022-08-17T17:46:27.333Z,100548.88
2022-08-17T17:48:55.081Z,100550.69
2022-08-17T17:52:06.361Z,100554.44
2022-08-17T17:54:50.547Z,100545.19
2022-08-17T17:57:47.072Z,100547.00
2022-08-17T18:00:52.754Z,100547.13
2022-08-17T18:03:30.382Z,100557.94
2022-08-17T18:06:21.571Z,100557.69
2022-08-17T18:09:04.731Z,100569.31
2022-08-17T18:12:02.523Z,100563.19
2022-08-17T18:14:28.883Z,100570.31
2022-08-17T18:16:58.167Z,100572.03
2022-08-17T18:19:27.264Z,100575.00
2022-08-17T18:22:14.061Z,100568.50
2022-08-17T18:24:44.084Z,100568.22
2022-08-17T18:27:31.827Z,100572.41
2022-08-17T18:30:04.458Z,100578.59
2022-08-17T18:32:39.976Z,100584.06
2022-08-17T18:35:09.086Z,100575.50
2022-08-17T18:37:46.611Z,100581.34
2022-08-17T18:40:23.347Z,100577.28
2022-08-17T18:43:10.756Z,100574.84
2022-08-17T18:45:49.172Z,100579.06
2022-08-17T18:48:49.348Z,100574.16
2022-08-17T18:51:42.426Z,100577.50
2022-08-17T18:54:20.874Z,100583.69
2022-08-17T18:56:59.251Z,100581.63
2022-08-17T18:59:34.366Z,100577.13
2022-08-17T19:02:20.721Z,100581.22
2022-08-17T19:05:01.731Z,100583.25
2022-08-17T19:07:32.764Z,100575.84
2022-08-17T19:10:09.004Z,100587.75
2022-08-17T19:13:01.466Z,100576.22
2022-08-17T19:15:34.728Z,100577.03
2022-08-17T19:18:14.717Z,100589.78
2022-08-17T19:20:47.606Z,100578.22
2022-08-17T19:23:35.653Z,100579.41
2022-08-17T19:26:06.655Z,100587.97
2022-08-17T19:29:01.343Z,100583.81
2022-08-17T19:31:30.955Z,100597.72
2022-08-17T19:34:00.004Z,100592.38
2022-08-17T19:36:58.840Z,100588.22
2022-08-17T19:39:41.690Z,100586.53
2022-08-17T19:42:14.909Z,100588.09
2022-08-17T19:44:56.745Z,100579.38
2022-08-17T19:47:55.116Z,100571.94
2022-08-17T19:50:39.027Z,100578.44
2022-08-17T19:54:03.925Z,100575.16
2022-08-17T19:56:35.040Z,100581.53
2022-08-17T19:59:11.721Z,100578.19
2022-08-17T20:01:47.357Z,100569.94
2022-08-17T20:04:32.375Z,100569.16
2022-08-17T20:07:18.528Z,100560.09
2022-08-17T20:09:54.384Z,100564.63
2022-08-17T20:12:26.571Z,100565.72
2022-08-17T20:14:57.480Z,100564.09
2022-08-17T20:17:32.360Z,100564.44
2022-08-17T20:20:19.910Z,100574.50
2022-08-17T20:23:12.712Z,100577.88
2022-08-17T20:26:03.055Z,100578.75
2022-08-17T20:28:35.028Z,100566.34
2022-08-17T20:31:23.847Z,100574.22
2022-08-17T20:33:51.955Z,100575.28
2022-08-17T20:36:22.383Z,100582.28
2022-08-17T20:38:57.969Z,100588.78
2022-08-17T20:41:27.478Z,100587.00
2022-08-17T20:43:56.886Z,100584.78
2022-08-17T20:46:30.142Z,100591.84
2022-08-17T20:49:11.020Z,100582.50
2022-08-17T20:52:00.565Z,100582.09
2022-08-17T20:54:42.021Z,100586.97
2022-08-17T20:57:13.976Z,100585.28
2022-08-17T20:59:43.670Z,100590.56
2022-08-17T21:02:19.332Z,100584.41
2022-08-17T21:04:53.312Z,100584.88
2022-08-17T21:07:43.069Z,100581.63
2022-08-17T21:10:17.450Z,100585.69
2022-08-17T21:12:47.957Z,100575.50
2022-08-17T21:15:42.353Z,100583.28
2022-08-17T21:18:31.738Z,100579.56
2022-08-17T21:21:31.596Z,100582.41
2022-08-17T21:24:07.010Z,100586.13
2022-08-17T21:27:09.612Z,100595.47
2022-08-17T21:29:53.153Z,100596.72
2022-08-17T21:32:28.790Z,100592.69
2022-08-17T21:35:07.476Z,100594.84
2022-08-17T21:37:44.323Z,100588.28
2022-08-17T21:40:10.791Z,100596.53
2022-08-17T21:42:58.966Z,100589.69
2022-08-17T21:45:37.063Z,100595.03
2022-08-17T21:48:13.911Z,100595.47
2022-08-17T21:50:44.492Z,100601.19
2022-08-17T21:53:28.118Z,100593.00
2022-08-17T21:55:57.372Z,100590.63
2022-08-17T21:58:40.149Z,100592.31
2022-08-17T22:01:12.729Z,100596.84
2022-08-17T22:03:55.446Z,100601.78
2022-08-17T22:06:26.908Z,100605.44
2022-08-17T22:09:27.922Z,100612.81
2022-08-17T22:12:06.474Z,100609.47
2022-08-17T22:14:53.095Z,100602.97
2022-08-17T22:17:27.634Z,100601.78
2022-08-17T22:19:59.461Z,100602.97
2022-08-17T22:22:32.533Z,100607.59
2022-08-17T22:25:23.113Z,100609.97
2022-08-17T22:27:57.458Z,100609.88
2022-08-17T22:30:30.078Z,100612.50
2022-08-17T22:32:57.495Z,100608.53
2022-08-17T22:35:35.032Z,100603.25
2022-08-17T22:38:19.671Z,100608.03
2022-08-17T22:40:52.381Z,100606.00
2022-08-17T22:43:25.985Z,100608.84
2022-08-17T22:45:57.543Z,100619.44
2022-08-17T22:48:27.906Z,100610.28
2022-08-17T22:51:12.797Z,100621.88
2022-08-17T22:54:08.851Z,100624.16
2022-08-17T22:57:05.444Z,100624.84
2022-08-17T22:59:44.969Z,100628.84
2022-08-17T23:02:25.579Z,100626.81
2022-08-17T23:05:12.961Z,100624.34
2022-08-17T23:07:40.506Z,100621.47
2022-08-17T23:10:09.484Z,100610.34
2022-08-17T23:12:39.542Z,100619.22
2022-08-17T23:15:15.552Z,100620.53
2022-08-17T23:17:42.332Z,100608.31
2022-08-17T23:20:14.923Z,100605.78
2022-08-17T23:22:52.507Z,100605.91
2022-08-17T23:25:26.847Z,100603.38
2022-08-17T23:27:54.322Z,100601.28
2022-08-17T23:30:21.307Z,100610.63
2022-08-17T23:32:53.446Z,100607.31
2022-08-17T23:35:20.677Z,100608.88
2022-08-17T23:38:07.726Z,100604.38
2022-08-17T23:40:34.434Z,100610.78
2022-08-17T23:43:00.889Z,100610.28
2022-08-17T23:45:32.433Z,100602.03
2022-08-17T23:47:58.846Z,100599.56
2022-08-17T23:50:25.275Z,100598.25
2022-08-17T23:52:57.568Z,100595.03
2022-08-17T23:55:23.999Z,100599.38
2022-08-17T23:57:50.642Z,100595.59
